createdAt,value
2022-11-20T00:01:43.352Z,5.80
2022-11-20T00:04:28.622Z,6.22
2022-11-20T00:07:14.109Z,5.80
2022-11-20T00:09:59.498Z,5.90
2022-11-20T00:12:44.907Z,6.40
2022-11-20T00:15:30.479Z,5.82
2022-11-20T00:18:16.098Z,5.72
2022-11-20T00:21:06.244Z,5.75
2022-11-20T00:23:54.943Z,5.75
2022-11-20T00:26:40.530Z,5.45
2022-11-20T00:29:26.086Z,5.63
2022-11-20T00:32:11.419Z,5.45
2022-11-20T00:34:56.839Z,6.03
2022-11-20T00:37:42.510Z,5.70
2022-11-20T00:40:27.716Z,5.50
2022-11-20T00:43:13.306Z,5.88
2022-11-20T00:46:19.119Z,5.75
2022-11-20T00:49:04.254Z,5.63
2022-11-20T00:51:49.738Z,6.20
2022-11-20T00:54:35.556Z,6.18
2022-11-20T00:57:20.892Z,6.50
2022-11-20T01:00:07.183Z,6.57
2022-11-20T01:02:52.226Z,6.38
2022-11-20T01:05:37.838Z,6.72
2022-11-20T01:08:23.397Z,6.20
2022-11-20T01:11:20.570Z,6.68
2022-11-20T01:14:08.235Z,6.68
2022-11-20T01:16:54.028Z,6.35
2022-11-20T01:19:39.577Z,5.72
2022-11-20T01:22:24.828Z,6.47
2022-11-20T01:25:10.163Z,6.25
2022-11-20T01:27:55.797Z,5.88
2022-11-20T01:30:41.232Z,6.10
2022-11-20T01:33:26.996Z,6.22
2022-11-20T01:36:13.835Z,6.45
2022-11-20T01:39:02.480Z,6.85
2022-11-20T01:42:10.113Z,6.55
2022-11-20T01:44:59.374Z,6.00
2022-11-20T01:47:47.491Z,6.07
2022-11-20T01:50:34.823Z,5.93
2022-11-20T01:53:25.739Z,6.53
2022-11-20T01:56:14.483Z,7.10
2022-11-20T01:59:02.875Z,6.80
2022-11-20T02:01:48.558Z,6.20
2022-11-20T02:04:34.037Z,6.75
2022-11-20T02:07:21.032Z,6.38
2022-11-20T02:10:08.383Z,6.28
2022-11-20T02:13:13.441Z,6.70
2022-11-20T02:15:58.791Z,5.85
2022-11-20T02:18:45.831Z,6.57
2022-11-20T02:21:42.906Z,7.03
2022-11-20T02:24:28.646Z,6.90
2022-11-20T02:27:16.164Z,6.63
2022-11-20T02:30:08.601Z,6.28
2022-11-20T02:35:43.199Z,6.03
2022-11-20T02:38:28.405Z,6.45
2022-11-20T02:41:14.298Z,6.50
2022-11-20T02:43:59.668Z,6.47
2022-11-20T02:46:45.326Z,6.60
2022-11-20T02:49:30.792Z,7.03
2022-11-20T02:52:16.459Z,7.22
2022-11-20T02:55:01.974Z,7.25
2022-11-20T02:57:47.715Z,7.05
2022-11-20T03:00:33.100Z,7.25
2022-11-20T03:03:18.774Z,7.20
2022-11-20T03:06:04.552Z,7.15
2022-11-20T03:08:49.742Z,7.10
2022-11-20T03:11:35.449Z,7.03
2022-11-20T03:14:20.757Z,7.00
2022-11-20T03:17:06.496Z,7.53
2022-11-20T03:19:51.507Z,6.72
2022-11-20T03:22:36.945Z,7.13
2022-11-20T03:25:23.307Z,7.25
2022-11-20T03:28:08.391Z,6.65
2022-11-20T03:30:55.438Z,7.13
2022-11-20T03:33:42.496Z,6.05
2022-11-20T03:36:28.885Z,6.85
2022-11-20T03:39:14.304Z,6.53
2022-11-20T03:41:59.704Z,6.88
2022-11-20T03:44:45.103Z,6.95
2022-11-20T03:47:30.591Z,6.90
2022-11-20T03:50:15.987Z,7.32
2022-11-20T03:53:01.546Z,6.90
2022-11-20T03:55:52.220Z,7.28
2022-11-20T03:58:42.336Z,6.53
2022-11-20T04:01:30.781Z,7.15
2022-11-20T04:04:16.019Z,6.55
2022-11-20T04:07:01.521Z,6.90
2022-11-20T04:09:46.803Z,6.97
2022-11-20T04:12:35.431Z,6.35
2022-11-20T04:15:21.014Z,7.28
2022-11-20T04:18:06.341Z,7.20
2022-11-20T04:20:52.135Z,7.45
2022-11-20T04:23:38.026Z,6.95
2022-11-20T04:26:26.730Z,7.60
2022-11-20T04:29:12.886Z,7.95
2022-11-20T04:31:58.098Z,7.60
2022-11-20T04:34:43.540Z,7.72
2022-11-20T04:37:28.952Z,7.68
2022-11-20T04:40:14.339Z,6.90
2022-11-20T04:42:59.703Z,7.22
2022-11-20T04:45:52.546Z,7.22
2022-11-20T04:51:23.275Z,7.47
2022-11-20T04:54:10.134Z,7.70
2022-11-20T04:56:55.391Z,7.47
2022-11-20T04:59:41.029Z,7.95
2022-11-20T05:02:26.348Z,8.10
2022-11-20T05:05:12.149Z,7.80
2022-11-20T05:07:58.657Z,8.07
2022-11-20T05:10:44.299Z,8.38
2022-11-20T05:13:29.854Z,8.27
2022-11-20T05:16:18.226Z,7.82
2022-11-20T05:19:03.454Z,7.82
2022-11-20T05:21:48.869Z,8.00
2022-11-20T05:24:34.220Z,7.65
2022-11-20T05:27:19.776Z,8.15
2022-11-20T05:30:06.299Z,7.93
2022-11-20T05:32:51.858Z,7.85
2022-11-20T05:35:37.317Z,7.75
2022-11-20T05:38:22.723Z,7.97
2022-11-20T05:41:13.466Z,7.95
2022-11-20T05:44:00.170Z,7.63
2022-11-20T05:46:45.688Z,7.40
2022-11-20T05:49:31.366Z,7.45
2022-11-20T05:52:16.543Z,7.50
2022-11-20T05:55:01.967Z,7.70
2022-11-20T05:57:47.473Z,8.10
2022-11-20T06:00:32.900Z,8.70
2022-11-20T06:03:18.308Z,8.30
2022-11-20T06:06:05.619Z,8.07
2022-11-20T06:08:50.963Z,8.05
2022-11-20T06:11:36.407Z,7.72
2022-11-20T06:14:21.909Z,8.05
2022-11-20T06:17:07.327Z,7.82
2022-11-20T06:19:53.051Z,8.32
2022-11-20T06:22:38.361Z,8.38
2022-11-20T06:25:23.972Z,7.80
2022-11-20T06:28:10.317Z,8.25
2022-11-20T06:30:55.535Z,8.30
2022-11-20T06:33:42.455Z,8.40
2022-11-20T06:36:27.639Z,8.43
2022-11-20T06:39:13.457Z,8.27
2022-11-20T06:41:59.451Z,8.40
2022-11-20T06:44:45.066Z,8.07
2022-11-20T06:47:30.641Z,8.68
2022-11-20T06:50:15.955Z,8.10
2022-11-20T06:53:03.647Z,8.73
2022-11-20T06:55:50.179Z,9.02
2022-11-20T06:58:37.291Z,8.25
2022-11-20T07:01:22.993Z,8.80
2022-11-20T07:04:08.294Z,8.80
2022-11-20T07:06:53.843Z,8.65
2022-11-20T07:09:39.332Z,9.20
2022-11-20T07:12:26.046Z,9.05
2022-11-20T07:15:11.406Z,9.35
2022-11-20T07:18:00.106Z,10.27
2022-11-20T07:20:45.299Z,9.68
2022-11-20T07:23:31.013Z,9.23
2022-11-20T07:26:16.558Z,9.40
2022-11-20T07:29:02.102Z,9.73
2022-11-20T07:31:47.668Z,10.10
2022-11-20T07:34:33.375Z,10.00
2022-11-20T07:37:19.064Z,9.20
2022-11-20T07:40:05.447Z,10.07
2022-11-20T07:42:56.043Z,10.55
2022-11-20T07:45:41.407Z,11.57
2022-11-20T07:48:27.135Z,10.70
2022-11-20T07:51:12.210Z,10.82
2022-11-20T07:53:57.731Z,10.52
2022-11-20T07:56:43.445Z,10.35
2022-11-20T07:59:28.620Z,10.75
2022-11-20T08:02:14.200Z,10.27
2022-11-20T08:04:59.643Z,10.43
2022-11-20T08:07:45.748Z,10.15
2022-11-20T08:10:31.682Z,11.45
2022-11-20T08:13:35.790Z,11.25
2022-11-20T08:16:21.671Z,11.60
2022-11-20T08:19:07.515Z,11.02
2022-11-20T08:21:52.856Z,10.85
2022-11-20T08:24:38.280Z,9.77
2022-11-20T08:27:23.548Z,9.95
2022-11-20T08:30:09.803Z,10.20
2022-11-20T08:32:55.687Z,10.75
2022-11-20T08:35:42.269Z,10.93
2022-11-20T08:38:27.575Z,11.50
2022-11-20T08:41:25.062Z,10.82
2022-11-20T08:44:10.392Z,10.60
2022-11-20T08:46:55.855Z,10.68
2022-11-20T08:49:41.264Z,10.98
2022-11-20T08:52:27.313Z,10.52
2022-11-20T08:55:13.002Z,10.65
2022-11-20T08:57:58.232Z,10.15
2022-11-20T09:00:43.720Z,9.63
2022-11-20T09:03:32.865Z,9.77
2022-11-20T09:06:19.242Z,9.57
2022-11-20T09:09:06.782Z,9.70
2022-11-20T09:11:52.613Z,11.07
2022-11-20T09:14:38.386Z,11.57
2022-11-20T09:17:24.009Z,11.20
2022-11-20T09:20:10.793Z,10.95
2022-11-20T09:22:57.086Z,10.93
2022-11-20T09:25:42.942Z,11.75
2022-11-20T09:28:28.284Z,10.98
2022-11-20T09:31:24.073Z,11.20
2022-11-20T09:34:09.679Z,11.38
2022-11-20T09:36:55.358Z,12.18
2022-11-20T09:39:40.713Z,12.07
2022-11-20T09:42:45.298Z,11.68
2022-11-20T09:45:55.040Z,12.25
2022-11-20T09:49:04.675Z,11.45
2022-11-20T09:52:00.511Z,11.15
2022-11-20T09:54:46.735Z,11.77
2022-11-20T09:57:38.799Z,11.20
2022-11-20T10:00:24.594Z,12.05
2022-11-20T10:03:31.463Z,11.10
2022-11-20T10:06:21.240Z,11.20
2022-11-20T10:09:13.027Z,11.45
2022-11-20T10:12:23.190Z,11.93
2022-11-20T10:15:25.552Z,12.68
2022-11-20T10:18:31.633Z,13.65
2022-11-20T10:21:37.462Z,13.57
2022-11-20T10:24:39.804Z,13.07
2022-11-20T10:27:59.363Z,12.32
2022-11-20T10:30:46.920Z,11.80
2022-11-20T10:34:05.053Z,12.77
2022-11-20T10:36:59.279Z,13.32
2022-11-20T10:40:26.711Z,12.30
2022-11-20T10:43:20.134Z,12.80
2022-11-20T10:46:26.437Z,13.15
2022-11-20T10:49:15.271Z,13.10
2022-11-20T10:52:18.511Z,13.27
2022-11-20T10:55:45.950Z,14.10
2022-11-20T10:59:03.475Z,13.98
2022-11-20T11:01:48.498Z,14.93
2022-11-20T11:04:39.672Z,14.25
2022-11-20T11:07:37.586Z,14.50
2022-11-20T11:10:33.547Z,13.85
2022-11-20T11:13:27.705Z,14.00
2022-11-20T11:16:25.163Z,15.57
2022-11-20T11:19:14.531Z,14.48
2022-11-20T11:22:00.380Z,14.88
2022-11-20T11:24:55.093Z,15.18
2022-11-20T11:27:51.448Z,16.00
2022-11-20T11:30:44.949Z,14.70
2022-11-20T11:33:34.588Z,15.05
2022-11-20T11:36:25.967Z,14.88
2022-11-20T11:39:21.252Z,15.60
2022-11-20T11:42:08.416Z,16.63
2022-11-20T11:45:06.039Z,17.95
2022-11-20T11:47:53.670Z,18.85
2022-11-20T11:50:49.495Z,18.98
2022-11-20T11:53:41.165Z,20.42
2022-11-20T11:56:27.503Z,20.23
2022-11-20T11:59:35.821Z,21.08
2022-11-20T12:02:50.784Z,21.10
2022-11-20T12:05:50.269Z,21.08
2022-11-20T12:08:53.891Z,22.33
2022-11-20T12:11:50.868Z,22.25
2022-11-20T12:14:39.334Z,22.75
2022-11-20T12:17:25.195Z,22.48
2022-11-20T12:20:14.378Z,22.83
2022-11-20T12:23:23.937Z,23.15
2022-11-20T12:26:20.435Z,21.70
2022-11-20T12:29:35.243Z,23.23
2022-11-20T12:32:35.439Z,24.58
2022-11-20T12:35:23.523Z,23.98
2022-11-20T12:38:27.692Z,22.98
2022-11-20T12:42:10.353Z,22.88
2022-11-20T12:45:28.116Z,24.20
2022-11-20T12:48:30.985Z,23.98
2022-11-20T12:51:27.487Z,23.30
2022-11-20T12:54:31.294Z,24.75
2022-11-20T12:57:53.574Z,24.13
2022-11-20T13:00:48.702Z,23.75
2022-11-20T13:03:55.513Z,24.98
2022-11-20T13:06:42.503Z,24.35
2022-11-20T13:09:29.240Z,26.83
2022-11-20T13:12:37.012Z,27.25
2022-11-20T13:15:41.080Z,24.75
2022-11-20T13:18:26.871Z,25.05
2022-11-20T13:21:38.644Z,23.95
2022-11-20T13:24:31.036Z,24.27
2022-11-20T13:27:16.342Z,23.42
2022-11-20T13:30:25.651Z,23.77
2022-11-20T13:33:26.503Z,23.83
2022-11-20T13:36:24.291Z,24.00
2022-11-20T13:39:10.428Z,23.85
2022-11-20T13:42:01.974Z,25.23
2022-11-20T13:45:02.787Z,24.38
2022-11-20T13:47:50.417Z,24.63
2022-11-20T13:50:39.050Z,23.08
2022-11-20T13:53:39.159Z,25.23
2022-11-20T13:56:44.806Z,24.38
2022-11-20T14:00:02.559Z,25.95
2022-11-20T14:03:15.644Z,23.73
2022-11-20T14:06:05.124Z,23.98
2022-11-20T14:08:52.022Z,24.85
2022-11-20T14:11:37.329Z,27.38
2022-11-20T14:14:25.432Z,24.65
2022-11-20T14:17:21.232Z,24.83
2022-11-20T14:20:13.565Z,25.05
2022-11-20T14:22:59.174Z,26.20
2022-11-20T14:25:46.262Z,24.65
2022-11-20T14:28:32.274Z,25.75
2022-11-20T14:31:28.478Z,24.77
2022-11-20T14:34:23.465Z,24.17
2022-11-20T14:37:17.120Z,24.95
2022-11-20T14:40:02.916Z,25.80
2022-11-20T14:42:48.277Z,25.23
2022-11-20T14:45:33.847Z,24.90
2022-11-20T14:48:19.765Z,25.30
2022-11-20T14:51:05.585Z,25.17
2022-11-20T14:53:50.760Z,25.10
2022-11-20T14:56:36.017Z,25.63
2022-11-20T14:59:26.638Z,25.25
2022-11-20T15:02:13.638Z,25.23
2022-11-20T15:05:00.550Z,25.27
2022-11-20T15:07:49.563Z,26.55
2022-11-20T15:10:35.554Z,26.83
2022-11-20T15:13:27.600Z,27.35
2022-11-20T15:16:21.898Z,26.55
2022-11-20T15:19:22.155Z,26.63
2022-11-20T15:22:13.821Z,27.63
2022-11-20T15:24:59.313Z,26.45
2022-11-20T15:27:46.524Z,26.17
2022-11-20T15:30:31.947Z,27.48
2022-11-20T15:33:18.622Z,25.27
2022-11-20T15:36:04.643Z,27.15
2022-11-20T15:38:49.817Z,26.67
2022-11-20T15:41:36.720Z,26.48
2022-11-20T15:44:22.571Z,27.13
2022-11-20T15:47:10.602Z,29.73
2022-11-20T15:49:56.430Z,30.08
2022-11-20T15:52:42.331Z,28.92
2022-11-20T15:55:27.981Z,30.92
2022-11-20T15:58:13.221Z,30.02
2022-11-20T16:00:58.769Z,29.70
2022-11-20T16:03:44.290Z,29.95
2022-11-20T16:06:29.722Z,29.95
2022-11-20T16:09:15.180Z,29.25
2022-11-20T16:12:01.036Z,29.92
2022-11-20T16:15:08.228Z,28.88
2022-11-20T16:17:57.695Z,29.67
2022-11-20T16:20:43.927Z,29.02
2022-11-20T16:23:29.819Z,30.17
2022-11-20T16:26:17.884Z,28.67
2022-11-20T16:29:04.916Z,32.13
2022-11-20T16:31:50.278Z,31.92
2022-11-20T16:34:35.938Z,30.05
2022-11-20T16:37:21.157Z,29.35
2022-11-20T16:40:07.284Z,29.05
2022-11-20T16:42:52.958Z,30.05
2022-11-20T16:45:43.305Z,30.75
2022-11-20T16:48:28.511Z,30.73
2022-11-20T16:51:13.705Z,29.23
2022-11-20T16:54:02.662Z,29.25
2022-11-20T16:56:48.232Z,30.48
2022-11-20T16:59:33.623Z,28.52
2022-11-20T17:02:19.091Z,32.53
2022-11-20T17:05:04.755Z,32.85
2022-11-20T17:07:50.266Z,34.10
2022-11-20T17:10:35.763Z,32.17
2022-11-20T17:13:21.058Z,32.72
2022-11-20T17:16:09.377Z,31.83
2022-11-20T17:19:02.887Z,31.92
2022-11-20T17:21:50.092Z,33.22
2022-11-20T17:24:35.804Z,32.67
2022-11-20T17:27:21.043Z,32.97
2022-11-20T17:30:06.851Z,32.97
2022-11-20T17:32:52.073Z,33.45
2022-11-20T17:35:37.655Z,33.65
2022-11-20T17:38:23.410Z,32.42
2022-11-20T17:41:11.034Z,33.03
2022-11-20T17:43:58.540Z,32.88
2022-11-20T17:46:43.760Z,32.38
2022-11-20T17:49:29.037Z,32.50
2022-11-20T17:52:14.700Z,31.73
2022-11-20T17:55:00.270Z,30.88
2022-11-20T17:57:56.610Z,33.22
2022-11-20T18:00:42.042Z,31.73
2022-11-20T18:03:28.626Z,32.53
2022-11-20T18:06:25.961Z,32.83
2022-11-20T18:09:12.140Z,32.05
2022-11-20T18:11:57.168Z,31.75
2022-11-20T18:14:43.871Z,31.75
2022-11-20T18:17:29.111Z,29.67
2022-11-20T18:20:35.205Z,29.45
2022-11-20T18:23:20.890Z,30.65
2022-11-20T18:26:07.115Z,29.77
2022-11-20T18:28:53.096Z,29.45
2022-11-20T18:31:39.614Z,29.85
2022-11-20T18:34:26.783Z,29.83
2022-11-20T18:37:15.449Z,29.38
2022-11-20T18:40:00.861Z,29.65
2022-11-20T18:43:04.962Z,29.48
2022-11-20T18:45:52.441Z,29.33
2022-11-20T18:48:39.032Z,29.40
2022-11-20T18:51:24.432Z,30.35
2022-11-20T18:54:10.550Z,31.02
2022-11-20T18:56:55.667Z,31.23
2022-11-20T18:59:43.130Z,31.40
2022-11-20T19:02:28.863Z,32.10
2022-11-20T19:05:15.152Z,32.22
2022-11-20T19:08:00.395Z,32.35
2022-11-20T19:10:45.808Z,30.80
2022-11-20T19:13:33.030Z,32.00
2022-11-20T19:16:22.495Z,31.45
2022-11-20T19:19:07.831Z,32.20
2022-11-20T19:21:53.379Z,32.50
2022-11-20T19:24:38.531Z,32.70
2022-11-20T19:27:24.150Z,33.53
2022-11-20T19:30:10.322Z,30.20
2022-11-20T19:32:57.967Z,31.80
2022-11-20T19:35:43.093Z,31.42
2022-11-20T19:38:28.595Z,31.20
2022-11-20T19:41:14.943Z,33.63
2022-11-20T19:44:18.227Z,31.73
2022-11-20T19:47:08.886Z,31.77
2022-11-20T19:49:57.423Z,31.77
2022-11-20T19:52:42.732Z,31.58
2022-11-20T19:55:28.050Z,31.13
2022-11-20T19:58:13.250Z,31.90
2022-11-20T20:01:11.776Z,29.63
2022-11-20T20:04:01.373Z,30.52
2022-11-20T20:06:46.930Z,31.77
2022-11-20T20:09:34.181Z,32.35
2022-11-20T20:12:20.433Z,32.63
2022-11-20T20:15:06.914Z,33.45
2022-11-20T20:17:53.571Z,33.30
2022-11-20T20:20:38.556Z,33.42
2022-11-20T20:23:24.051Z,33.28
2022-11-20T20:26:10.603Z,32.03
2022-11-20T20:28:56.616Z,32.63
2022-11-20T20:31:42.205Z,30.85
2022-11-20T20:34:31.990Z,29.02
2022-11-20T20:37:17.413Z,30.42
2022-11-20T20:40:02.873Z,29.45
2022-11-20T20:42:48.066Z,31.52
2022-11-20T20:45:33.427Z,29.58
2022-11-20T20:48:21.400Z,29.95
2022-11-20T20:51:08.532Z,30.33
2022-11-20T20:53:54.286Z,30.13
2022-11-20T20:56:40.004Z,29.02
2022-11-20T20:59:25.526Z,28.85
2022-11-20T21:02:11.543Z,29.85
2022-11-20T21:04:56.670Z,28.33
2022-11-20T21:08:02.296Z,28.42
2022-11-20T21:10:55.318Z,26.90
2022-11-20T21:13:42.986Z,28.52
2022-11-20T21:16:40.731Z,27.40
2022-11-20T21:19:27.187Z,27.85
2022-11-20T21:22:12.586Z,28.45
2022-11-20T21:24:57.975Z,28.83
2022-11-20T21:27:43.261Z,27.77
2022-11-20T21:30:28.766Z,31.95
2022-11-20T21:33:14.639Z,31.40
2022-11-20T21:36:01.114Z,29.30
2022-11-20T21:38:47.567Z,28.88
2022-11-20T21:41:33.108Z,29.02
2022-11-20T21:44:33.550Z,29.05
2022-11-20T21:47:18.773Z,29.02
2022-11-20T21:50:04.573Z,27.40
2022-11-20T21:52:49.977Z,27.95
2022-11-20T21:55:35.435Z,31.02
2022-11-20T21:58:21.015Z,30.60
2022-11-20T22:01:16.444Z,32.70
2022-11-20T22:04:02.595Z,34.97
2022-11-20T22:06:48.591Z,33.70
2022-11-20T22:09:34.282Z,35.22
2022-11-20T22:12:19.686Z,34.83
2022-11-20T22:15:05.502Z,33.20
2022-11-20T22:18:09.674Z,32.95
2022-11-20T22:20:54.983Z,32.03
2022-11-20T22:23:40.578Z,30.95
2022-11-20T22:26:28.444Z,30.13
2022-11-20T22:29:18.742Z,32.08
2022-11-20T22:32:04.062Z,32.13
2022-11-20T22:34:49.487Z,30.55
2022-11-20T22:37:34.814Z,31.02
2022-11-20T22:40:20.509Z,32.63
2022-11-20T22:43:05.874Z,34.45
2022-11-20T22:45:51.276Z,32.05
2022-11-20T22:48:38.998Z,32.65
2022-11-20T22:51:27.081Z,33.05
2022-11-20T22:54:12.956Z,31.17
2022-11-20T22:56:58.356Z,34.58
2022-11-20T22:59:43.688Z,33.60
2022-11-20T23:02:29.610Z,30.98
2022-11-20T23:05:15.139Z,31.67
2022-11-20T23:08:00.566Z,30.25
2022-11-20T23:10:46.119Z,29.33
2022-11-20T23:13:31.817Z,30.88
2022-11-20T23:16:19.871Z,29.58
2022-11-20T23:19:08.221Z,28.35
2022-11-20T23:21:53.663Z,31.55
2022-11-20T23:24:38.991Z,29.40
2022-11-20T23:27:28.208Z,27.58
2022-11-20T23:30:14.074Z,29.58
2022-11-20T23:32:59.466Z,28.63
2022-11-20T23:35:47.292Z,28.02
2022-11-20T23:38:33.296Z,27.73
2022-11-20T23:41:18.759Z,29.33
2022-11-20T23:44:04.491Z,28.48
2022-11-20T23:46:49.527Z,26.95
2022-11-20T23:49:34.968Z,27.42
2022-11-20T23:52:20.352Z,26.42
2022-11-20T23:55:06.257Z,26.55
2022-11-20T23:57:51.688Z,29.20
